createdAt,value
2018-09-15T00:00:47.707Z,6.40
2018-09-15T00:03:15.799Z,7.40
2018-09-15T00:05:43.896Z,6.93
2018-09-15T00:08:11.967Z,6.47
2018-09-15T00:10:40.062Z,4.73
2018-09-15T00:13:08.130Z,6.63
2018-09-15T00:15:36.198Z,7.53
2018-09-15T00:18:06.489Z,5.10
2018-09-15T00:20:34.564Z,4.73
2018-09-15T00:23:02.667Z,4.33
2018-09-15T00:25:30.768Z,7.20
2018-09-15T00:27:58.869Z,5.33
2018-09-15T00:30:26.921Z,4.63
2018-09-15T00:32:54.989Z,6.67
2018-09-15T00:35:23.131Z,4.97
2018-09-15T00:37:51.367Z,7.50
2018-09-15T00:40:19.537Z,5.03
2018-09-15T00:42:47.832Z,5.03
2018-09-15T00:45:15.919Z,5.17
2018-09-15T00:47:44.013Z,5.10
2018-09-15T00:50:12.062Z,8.33
2018-09-15T00:52:40.150Z,4.20
2018-09-15T00:55:08.211Z,5.43
2018-09-15T00:57:36.297Z,5.60
2018-09-15T01:00:05.642Z,4.70
2018-09-15T01:02:33.736Z,8.23
2018-09-15T01:05:01.815Z,4.87
2018-09-15T01:07:29.883Z,4.70
2018-09-15T01:09:57.956Z,5.53
2018-09-15T01:12:26.081Z,6.60
2018-09-15T01:14:54.126Z,4.27
2018-09-15T01:17:22.197Z,5.90
2018-09-15T01:19:50.315Z,5.93
2018-09-15T01:22:18.394Z,5.83
2018-09-15T01:24:46.661Z,4.93
2018-09-15T01:27:14.955Z,4.57
2018-09-15T01:29:43.049Z,4.50
2018-09-15T01:32:11.162Z,5.10
2018-09-15T01:34:39.292Z,9.23
2018-09-15T01:37:07.370Z,5.23
2018-09-15T01:39:35.476Z,4.90
2018-09-15T01:42:03.607Z,6.57
2018-09-15T01:44:31.676Z,7.03
2018-09-15T01:46:59.737Z,4.47
2018-09-15T01:49:27.817Z,6.33
2018-09-15T01:51:55.887Z,11.10
2018-09-15T01:54:23.965Z,5.73
2018-09-15T01:56:52.058Z,6.50
2018-09-15T01:59:20.151Z,5.20
2018-09-15T02:01:48.213Z,6.63
2018-09-15T02:04:16.266Z,5.03
2018-09-15T02:06:44.322Z,7.00
2018-09-15T02:09:14.005Z,4.43
2018-09-15T02:11:42.154Z,4.80
2018-09-15T02:14:10.314Z,4.60
2018-09-15T02:16:38.374Z,6.57
2018-09-15T02:19:06.467Z,5.60
2018-09-15T02:21:34.551Z,5.87
2018-09-15T02:24:02.659Z,7.60
2018-09-15T02:26:30.703Z,5.30
2018-09-15T02:28:58.809Z,6.50
2018-09-15T02:31:26.860Z,7.70
2018-09-15T02:33:54.968Z,6.67
2018-09-15T02:36:23.112Z,5.20
2018-09-15T02:38:51.269Z,8.10
2018-09-15T02:41:19.335Z,4.47
2018-09-15T02:43:47.560Z,4.43
2018-09-15T02:46:16.028Z,4.40
2018-09-15T02:48:44.371Z,5.30
2018-09-15T02:51:12.492Z,5.63
2018-09-15T02:53:40.908Z,5.10
2018-09-15T02:56:08.991Z,6.73
2018-09-15T02:58:37.031Z,5.97
2018-09-15T03:01:05.095Z,6.73
2018-09-15T03:03:33.185Z,5.20
2018-09-15T03:06:01.261Z,5.83
2018-09-15T03:08:29.324Z,6.50
2018-09-15T03:10:57.395Z,5.13
2018-09-15T03:13:25.489Z,5.17
2018-09-15T03:15:53.525Z,5.30
2018-09-15T03:18:21.590Z,5.07
2018-09-15T03:20:49.671Z,6.10
2018-09-15T03:23:17.719Z,6.43
2018-09-15T03:25:45.787Z,5.33
2018-09-15T03:28:13.867Z,6.90
2018-09-15T03:30:41.979Z,15.07
2018-09-15T03:33:10.257Z,4.57
2018-09-15T03:35:38.357Z,4.30
2018-09-15T03:38:06.508Z,5.20
2018-09-15T03:40:34.610Z,4.40
2018-09-15T03:43:02.663Z,5.73
2018-09-15T03:45:30.735Z,6.40
2018-09-15T03:47:58.802Z,5.43
2018-09-15T03:50:26.881Z,4.20
2018-09-15T03:52:55.028Z,4.00
2018-09-15T03:55:23.079Z,6.57
2018-09-15T03:57:51.192Z,6.73
2018-09-15T04:00:19.252Z,6.40
2018-09-15T04:02:47.349Z,5.57
2018-09-15T04:05:15.416Z,4.63
2018-09-15T04:07:43.491Z,5.50
2018-09-15T04:10:11.591Z,5.27
2018-09-15T04:12:39.727Z,4.50
2018-09-15T04:15:07.799Z,4.47
2018-09-15T04:17:35.874Z,6.97
2018-09-15T04:20:03.960Z,5.50
2018-09-15T04:22:32.028Z,5.17
2018-09-15T04:25:00.089Z,7.07
2018-09-15T04:27:28.198Z,6.20
2018-09-15T04:29:56.287Z,5.60
2018-09-15T04:32:24.552Z,6.07
2018-09-15T04:34:52.784Z,6.57
2018-09-15T04:37:20.883Z,6.07
2018-09-15T04:39:48.949Z,4.53
2018-09-15T04:42:17.104Z,6.03
2018-09-15T04:44:45.195Z,5.77
2018-09-15T04:47:13.267Z,5.67
2018-09-15T04:49:41.319Z,6.70
2018-09-15T04:52:09.390Z,6.67
2018-09-15T04:54:37.462Z,6.57
2018-09-15T04:57:05.614Z,6.23
2018-09-15T04:59:33.713Z,5.03
2018-09-15T05:02:01.823Z,5.53
2018-09-15T05:04:29.878Z,6.30
2018-09-15T05:06:57.953Z,6.03
2018-09-15T05:09:26.019Z,6.03
2018-09-15T05:11:54.087Z,4.93
2018-09-15T05:14:22.166Z,5.17
2018-09-15T05:16:50.242Z,8.40
2018-09-15T05:19:18.320Z,5.20
2018-09-15T05:21:46.412Z,5.40
2018-09-15T05:24:14.567Z,6.40
2018-09-15T05:26:42.661Z,7.83
2018-09-15T05:29:10.788Z,6.90
2018-09-15T05:31:38.962Z,9.00
2018-09-15T05:34:07.024Z,6.53
2018-09-15T05:36:35.258Z,5.13
2018-09-15T05:39:03.499Z,7.40
2018-09-15T05:41:31.607Z,4.77
2018-09-15T05:43:59.703Z,5.33
2018-09-15T05:46:27.764Z,5.00
2018-09-15T05:48:55.889Z,10.60
2018-09-15T05:51:23.956Z,7.13
2018-09-15T05:53:52.031Z,6.97
2018-09-15T05:56:20.091Z,5.23
2018-09-15T05:58:48.271Z,14.77
2018-09-15T06:01:16.338Z,6.63
2018-09-15T06:03:44.411Z,12.27
2018-09-15T06:06:12.479Z,7.93
2018-09-15T06:08:40.563Z,9.60
2018-09-15T06:11:08.640Z,12.43
2018-09-15T06:13:36.821Z,7.53
2018-09-15T06:16:04.851Z,7.43
2018-09-15T06:18:33.098Z,8.33
2018-09-15T06:21:01.388Z,6.17
2018-09-15T06:23:29.589Z,5.83
2018-09-15T06:25:57.816Z,4.73
2018-09-15T06:28:26.582Z,8.03
2018-09-15T06:30:55.130Z,8.20
2018-09-15T06:33:23.390Z,7.60
2018-09-15T06:35:51.708Z,8.80
2018-09-15T06:38:19.916Z,4.80
2018-09-15T06:40:48.413Z,7.70
2018-09-15T06:43:16.866Z,6.80
2018-09-15T06:45:45.218Z,5.33
2018-09-15T06:48:13.584Z,4.83
2018-09-15T06:50:41.788Z,5.87
2018-09-15T06:53:10.025Z,6.40
2018-09-15T06:55:38.645Z,5.00
2018-09-15T06:58:08.664Z,8.60
2018-09-15T07:00:37.744Z,5.10
2018-09-15T07:03:06.015Z,7.53
2018-09-15T07:05:34.302Z,7.37
2018-09-15T07:08:02.542Z,7.73
2018-09-15T07:10:30.810Z,9.53
2018-09-15T07:12:59.324Z,5.00
2018-09-15T07:15:27.381Z,6.87
2018-09-15T07:17:55.765Z,6.27
2018-09-15T07:20:24.178Z,7.47
2018-09-15T07:22:52.748Z,7.73
2018-09-15T07:25:20.933Z,6.07
2018-09-15T07:27:49.467Z,6.30
2018-09-15T07:30:18.070Z,5.20
2018-09-15T07:32:47.395Z,6.20
2018-09-15T07:35:15.617Z,5.37
2018-09-15T07:37:45.158Z,5.27
2018-09-15T07:40:13.806Z,6.90
2018-09-15T07:42:42.051Z,6.83
2018-09-15T07:45:10.231Z,10.20
2018-09-15T07:47:38.535Z,6.37
2018-09-15T07:50:06.799Z,6.30
2018-09-15T08:06:50.408Z,7.33
2018-09-15T08:09:18.490Z,5.80
2018-09-15T08:11:46.572Z,4.43
2018-09-15T08:14:14.700Z,5.40
2018-09-15T08:16:42.775Z,7.00
2018-09-15T08:19:10.836Z,5.17
2018-09-15T08:21:38.946Z,8.03
2018-09-15T08:24:07.092Z,7.27
2018-09-15T08:26:35.246Z,6.30
2018-09-15T08:29:03.275Z,4.17
2018-09-15T08:31:31.338Z,9.60
2018-09-15T08:33:59.414Z,5.37
2018-09-15T08:36:27.527Z,7.90
2018-09-15T08:38:55.604Z,9.90
2018-09-15T08:41:23.749Z,5.47
2018-09-15T08:43:51.813Z,5.63
2018-09-15T08:46:19.904Z,8.80
2018-09-15T08:48:48.020Z,7.70
2018-09-15T08:51:16.092Z,6.37
2018-09-15T08:53:44.255Z,6.67
2018-09-15T08:56:12.431Z,9.90
2018-09-15T08:58:40.461Z,8.30
2018-09-15T09:01:08.572Z,5.67
2018-09-15T09:03:36.684Z,7.37
2018-09-15T09:06:04.768Z,9.67
2018-09-15T09:08:32.886Z,7.53
2018-09-15T09:11:00.971Z,6.63
2018-09-15T09:13:29.058Z,5.07
2018-09-15T09:15:57.139Z,6.17
2018-09-15T09:18:25.223Z,7.57
2018-09-15T09:20:53.414Z,6.00
2018-09-15T09:23:21.499Z,7.37
2018-09-15T09:25:49.622Z,5.13
2018-09-15T09:28:17.850Z,5.50
2018-09-15T09:30:46.026Z,4.87
2018-09-15T09:33:14.190Z,4.77
2018-09-15T09:35:42.193Z,4.87
2018-09-15T09:38:10.317Z,4.40
2018-09-15T09:40:38.355Z,6.40
2018-09-15T09:43:06.439Z,5.83
2018-09-15T09:45:34.543Z,5.17
2018-09-15T09:48:02.704Z,2.27
2018-09-15T09:50:30.731Z,7.67
2018-09-15T09:52:58.783Z,3.20
2018-09-15T09:55:26.862Z,3.00
2018-09-15T09:57:54.950Z,6.50
2018-09-15T10:00:28.475Z,4.27
2018-09-15T10:02:56.540Z,3.80
2018-09-15T10:05:24.696Z,6.90
2018-09-15T10:07:52.759Z,5.60
2018-09-15T10:10:20.860Z,7.50
2018-09-15T10:12:48.957Z,3.87
2018-09-15T10:15:17.059Z,3.63
2018-09-15T10:17:45.134Z,4.30
2018-09-15T10:20:13.451Z,3.03
2018-09-15T10:22:41.576Z,3.60
2018-09-15T10:25:09.641Z,11.60
2018-09-15T10:27:37.696Z,5.00
2018-09-15T10:30:05.770Z,3.20
2018-09-15T10:32:33.855Z,6.37
2018-09-15T10:35:01.956Z,2.03
2018-09-15T10:37:30.027Z,2.70
2018-09-15T10:39:58.111Z,2.57
2018-09-15T10:42:26.191Z,5.27
2018-09-15T10:44:54.297Z,4.17
2018-09-15T10:47:22.443Z,2.83
2018-09-15T10:49:50.543Z,2.03
2018-09-15T10:52:18.718Z,1.10
2018-09-15T10:54:46.789Z,1.87
2018-09-15T10:57:14.863Z,1.77
2018-09-15T10:59:43.056Z,4.67
2018-09-15T11:02:12.964Z,1.60
2018-09-15T11:04:41.731Z,3.77
2018-09-15T11:07:09.818Z,1.27
2018-09-15T11:09:37.911Z,1.60
2018-09-15T11:12:06.129Z,1.50
2018-09-15T11:14:34.268Z,2.60
2018-09-15T11:17:02.374Z,2.47
2018-09-15T11:19:30.721Z,1.20
2018-09-15T11:21:58.839Z,1.20
2018-09-15T11:24:27.019Z,2.40
2018-09-15T11:26:55.371Z,2.57
2018-09-15T11:29:23.451Z,2.90
2018-09-15T11:31:51.535Z,1.40
2018-09-15T11:34:19.627Z,0.87
2018-09-15T11:36:47.699Z,3.30
2018-09-15T11:39:15.781Z,1.40
2018-09-15T11:41:43.863Z,3.10
2018-09-15T11:44:12.028Z,1.10
2018-09-15T11:46:40.120Z,1.67
2018-09-15T11:49:08.184Z,2.27
2018-09-15T11:51:36.268Z,2.40
2018-09-15T11:54:04.327Z,1.30
2018-09-15T11:56:32.403Z,7.13
2018-09-15T11:59:00.502Z,1.43
2018-09-15T12:01:28.637Z,1.60
2018-09-15T12:03:56.725Z,1.30
2018-09-15T12:06:24.800Z,1.37
2018-09-15T12:08:52.892Z,1.83
2018-09-15T12:11:20.986Z,2.60
2018-09-15T12:13:49.067Z,1.47
2018-09-15T12:16:17.243Z,2.90
2018-09-15T12:18:45.380Z,1.77
2018-09-15T12:21:13.513Z,1.53
2018-09-15T12:23:41.575Z,2.23
2018-09-15T12:26:09.655Z,1.83
2018-09-15T12:28:37.734Z,2.90
2018-09-15T12:31:06.123Z,1.30
2018-09-15T12:33:34.248Z,2.60
2018-09-15T12:37:34.075Z,1.23
2018-09-15T12:40:02.147Z,2.70
2018-09-15T12:42:30.297Z,1.90
2018-09-15T12:44:58.484Z,3.13
2018-09-15T12:47:26.528Z,0.87
2018-09-15T12:49:54.944Z,1.20
2018-09-15T12:52:23.206Z,2.77
2018-09-15T12:54:51.891Z,2.50
2018-09-15T12:57:20.152Z,1.20
2018-09-15T12:59:48.289Z,3.20
2018-09-15T13:02:16.446Z,1.07
2018-09-15T13:04:44.533Z,1.20
2018-09-15T13:07:12.656Z,2.77
2018-09-15T13:09:40.762Z,1.87
2018-09-15T13:12:08.998Z,1.53
2018-09-15T13:14:37.012Z,1.83
2018-09-15T13:17:05.215Z,2.77
2018-09-15T13:19:33.295Z,1.70
2018-09-15T13:22:01.415Z,1.17
2018-09-15T13:24:29.540Z,1.10
2018-09-15T13:26:57.621Z,2.07
2018-09-15T13:29:25.803Z,2.53
2018-09-15T13:31:53.791Z,2.30
2018-09-15T13:34:21.896Z,1.10
2018-09-15T13:36:49.994Z,1.93
2018-09-15T13:39:18.065Z,1.30
2018-09-15T13:41:46.179Z,1.87
2018-09-15T13:44:14.275Z,1.20
2018-09-15T13:46:42.383Z,1.97
2018-09-15T13:49:10.468Z,1.83
2018-09-15T13:51:38.527Z,2.10
2018-09-15T13:54:06.695Z,1.17
2018-09-15T13:56:34.811Z,1.13
2018-09-15T13:59:02.941Z,1.83
2018-09-15T14:01:31.012Z,1.23
2018-09-15T14:03:59.099Z,1.63
2018-09-15T14:06:27.222Z,1.37
2018-09-15T14:08:55.317Z,0.90
2018-09-15T14:11:23.434Z,1.00
2018-09-15T14:13:51.491Z,1.73
2018-09-15T14:16:19.590Z,4.10
2018-09-15T14:18:47.738Z,1.10
2018-09-15T14:21:15.828Z,1.47
2018-09-15T14:23:43.905Z,1.57
2018-09-15T14:26:12.240Z,0.80
2018-09-15T14:28:40.648Z,2.00
2018-09-15T14:31:08.759Z,1.10
2018-09-15T14:33:36.815Z,2.17
2018-09-15T14:36:04.917Z,0.90
2018-09-15T14:38:33.052Z,1.00
2018-09-15T14:41:01.095Z,1.10
2018-09-15T14:43:29.171Z,2.07
2018-09-15T14:45:57.424Z,2.50
2018-09-15T14:48:25.569Z,1.17
2018-09-15T14:50:53.631Z,3.03
2018-09-15T14:53:21.703Z,1.63
2018-09-15T14:55:49.810Z,1.00
2018-09-15T14:58:17.949Z,1.10
2018-09-15T15:00:46.094Z,1.63
2018-09-15T15:03:14.661Z,0.97
2018-09-15T15:05:42.792Z,1.80
2018-09-15T15:08:10.867Z,2.30
2018-09-15T15:10:39.007Z,2.97
2018-09-15T15:13:07.061Z,1.13
2018-09-15T15:15:35.136Z,1.93
2018-09-15T15:18:03.229Z,1.00
2018-09-15T15:20:31.300Z,1.40
2018-09-15T15:22:59.371Z,1.00
2018-09-15T15:25:27.461Z,3.50
2018-09-15T15:27:55.519Z,1.90
2018-09-15T15:30:23.587Z,3.67
2018-09-15T15:32:51.656Z,2.23
2018-09-15T15:35:19.774Z,1.60
2018-09-15T15:37:47.881Z,1.23
2018-09-15T15:40:15.939Z,1.90
2018-09-15T15:42:44.058Z,2.10
2018-09-15T15:45:12.168Z,1.33
2018-09-15T15:47:40.255Z,2.77
2018-09-15T15:50:08.346Z,2.30
2018-09-15T15:52:36.459Z,1.83
2018-09-15T15:55:04.623Z,1.37
2018-09-15T15:57:32.768Z,4.70
2018-09-15T16:00:00.860Z,1.23
2018-09-15T16:02:28.935Z,1.57
2018-09-15T16:04:57.049Z,3.33
2018-09-15T16:07:25.675Z,4.07
2018-09-15T16:09:54.568Z,2.17
2018-09-15T16:12:23.513Z,1.70
2018-09-15T16:14:52.105Z,2.63
2018-09-15T16:17:32.918Z,2.83
2018-09-15T16:20:01.344Z,1.57
2018-09-15T16:22:29.626Z,4.83
2018-09-15T16:24:57.925Z,1.63
2018-09-15T16:27:26.197Z,4.13
2018-09-15T16:29:54.598Z,2.40
2018-09-15T16:32:23.012Z,1.73
2018-09-15T16:34:51.371Z,3.50
2018-09-15T16:37:19.632Z,4.77
2018-09-15T16:39:47.905Z,1.60
2018-09-15T16:42:16.445Z,2.60
2018-09-15T16:44:44.509Z,1.43
2018-09-15T16:47:12.691Z,1.10
2018-09-15T16:49:40.763Z,4.20
2018-09-15T16:52:08.887Z,1.63
2018-09-15T16:54:36.994Z,2.10
2018-09-15T16:57:05.187Z,3.70
2018-09-15T16:59:33.211Z,1.60
2018-09-15T17:02:01.288Z,2.83
2018-09-15T17:04:29.415Z,2.50
2018-09-15T17:08:00.319Z,2.23
2018-09-15T17:10:28.443Z,10.73
2018-09-15T17:12:56.536Z,15.70
2018-09-15T17:15:24.615Z,11.20
2018-09-15T17:17:52.707Z,14.40
2018-09-15T17:20:20.793Z,5.00
2018-09-15T17:22:49.239Z,2.80
2018-09-15T17:25:17.319Z,6.37
2018-09-15T17:27:45.460Z,7.97
2018-09-15T17:30:13.576Z,9.70
2018-09-15T17:32:41.759Z,8.03
2018-09-15T17:35:09.837Z,5.03
2018-09-15T17:37:38.063Z,3.83
2018-09-15T17:40:06.307Z,5.53
2018-09-15T17:42:34.432Z,3.73
2018-09-15T17:45:02.586Z,3.53
2018-09-15T17:47:30.603Z,2.03
2018-09-15T17:49:58.688Z,2.43
2018-09-15T17:52:26.763Z,2.20
2018-09-15T17:54:54.932Z,2.33
2018-09-15T17:57:22.920Z,2.00
2018-09-15T17:59:51.003Z,4.90
2018-09-15T18:02:19.134Z,2.10
2018-09-15T18:04:47.296Z,2.17
2018-09-15T18:07:15.371Z,2.80
2018-09-15T18:09:43.856Z,3.60
2018-09-15T18:12:11.872Z,2.83
2018-09-15T18:14:40.156Z,4.23
2018-09-15T18:17:08.339Z,2.87
2018-09-15T18:19:36.448Z,4.20
2018-09-15T18:22:04.650Z,2.93
2018-09-15T18:24:32.659Z,4.03
2018-09-15T18:27:00.753Z,2.90
2018-09-15T18:29:28.895Z,7.83
2018-09-15T18:31:56.995Z,4.40
2018-09-15T18:34:25.083Z,4.80
2018-09-15T18:36:53.429Z,4.77
2018-09-15T18:39:21.265Z,5.10
2018-09-15T18:41:49.344Z,3.63
2018-09-15T18:44:17.469Z,5.50
2018-09-15T18:46:45.566Z,5.30
2018-09-15T18:49:13.671Z,7.23
2018-09-15T18:51:41.811Z,6.80
2018-09-15T18:54:09.944Z,14.10
2018-09-15T18:56:38.060Z,13.37
2018-09-15T18:59:06.179Z,12.97
2018-09-15T19:01:34.327Z,11.60
2018-09-15T19:04:02.417Z,10.57
2018-09-15T19:06:30.790Z,8.53
2018-09-15T19:08:59.097Z,10.40
2018-09-15T19:11:27.450Z,12.57
2018-09-15T19:13:55.720Z,13.10
2018-09-15T19:16:23.941Z,29.63
2018-09-15T19:18:52.282Z,33.00
2018-09-15T19:21:21.361Z,33.67
2018-09-15T19:23:49.644Z,47.83
2018-09-15T19:26:18.015Z,47.57
2018-09-15T19:28:53.476Z,43.60
2018-09-15T19:31:21.751Z,36.17
2018-09-15T19:33:50.369Z,30.00
2018-09-15T19:36:18.672Z,30.73
2018-09-15T19:38:47.447Z,29.47
2018-09-15T19:41:16.732Z,23.67
2018-09-15T19:43:44.938Z,30.30
2018-09-15T19:46:13.147Z,25.80
2018-09-15T19:48:41.451Z,20.20
2018-09-15T19:51:09.630Z,23.27
2018-09-15T19:53:37.878Z,14.67
2018-09-15T19:56:06.209Z,11.63
2018-09-15T19:58:35.066Z,10.67
2018-09-15T20:01:03.358Z,8.07
2018-09-15T20:03:31.545Z,8.27
2018-09-15T20:05:59.754Z,7.47
2018-09-15T20:08:28.566Z,9.90
2018-09-15T20:10:56.852Z,5.13
2018-09-15T20:13:25.504Z,5.50
2018-09-15T20:15:52.643Z,9.03
2018-09-15T20:18:20.210Z,5.67
2018-09-15T20:20:47.408Z,7.60
2018-09-15T20:23:15.689Z,7.40
2018-09-15T20:25:44.120Z,5.83
2018-09-15T20:28:12.404Z,6.80
2018-09-15T20:30:40.704Z,5.50
2018-09-15T20:33:09.237Z,7.30
2018-09-15T20:35:37.513Z,6.87
2018-09-15T20:38:09.809Z,7.50
2018-09-15T20:40:38.119Z,6.10
2018-09-15T20:43:07.260Z,4.13
2018-09-15T20:48:32.754Z,5.33
2018-09-15T20:51:02.331Z,5.47
2018-09-15T20:53:31.008Z,5.40
2018-09-15T20:55:59.196Z,6.73
2018-09-15T20:58:27.581Z,6.70
2018-09-15T21:00:55.777Z,4.27
2018-09-15T21:03:24.135Z,3.63
2018-09-15T21:05:52.658Z,3.70
2018-09-15T21:08:20.852Z,6.93
2018-09-15T21:10:49.032Z,4.97
2018-09-15T21:13:17.280Z,3.50
2018-09-15T21:15:45.906Z,6.13
2018-09-15T21:18:15.100Z,3.53
2018-09-15T21:20:44.376Z,4.50
2018-09-15T21:23:12.629Z,5.70
2018-09-15T21:25:40.915Z,4.03
2018-09-15T21:28:09.122Z,3.50
2018-09-15T21:30:37.341Z,9.00
2018-09-15T21:33:05.699Z,4.10
2018-09-15T21:35:33.940Z,5.87
2018-09-15T21:38:02.143Z,5.70
2018-09-15T21:40:30.375Z,5.90
2018-09-15T21:42:58.593Z,5.50
2018-09-15T21:45:26.890Z,4.13
2018-09-15T21:47:55.040Z,6.43
2018-09-15T21:50:23.321Z,5.13
2018-09-15T21:52:51.619Z,5.23
2018-09-15T21:55:19.900Z,4.53
2018-09-15T21:57:49.666Z,4.67
2018-09-15T22:00:17.911Z,5.87
2018-09-15T22:02:47.026Z,6.30
2018-09-15T22:05:15.328Z,7.27
2018-09-15T22:07:43.731Z,5.60
2018-09-15T22:10:12.195Z,6.03
2018-09-15T22:12:40.457Z,5.93
2018-09-15T22:15:14.075Z,4.23
2018-09-15T22:17:43.527Z,5.97
2018-09-15T22:20:12.644Z,5.30
2018-09-15T22:22:42.677Z,6.13
2018-09-15T22:25:12.425Z,5.80
2018-09-15T22:27:40.682Z,6.30
2018-09-15T22:30:09.741Z,4.90
2018-09-15T22:32:37.949Z,4.70
2018-09-15T22:35:06.234Z,4.73
2018-09-15T22:37:34.698Z,8.67
2018-09-15T22:40:03.227Z,8.03
2018-09-15T22:42:32.470Z,4.40
2018-09-15T22:45:01.325Z,7.03
2018-09-15T22:47:30.509Z,6.90
2018-09-15T22:49:58.655Z,4.57
2018-09-15T22:52:26.935Z,6.40
2018-09-15T22:54:55.136Z,7.23
2018-09-15T22:57:23.389Z,12.23
2018-09-15T22:59:51.606Z,5.30
2018-09-15T23:02:19.791Z,5.83
2018-09-15T23:04:48.282Z,5.10
2018-09-15T23:07:16.511Z,7.13
2018-09-15T23:09:45.071Z,6.00
2018-09-15T23:12:13.573Z,6.03
2018-09-15T23:14:42.164Z,5.50
2018-09-15T23:17:10.413Z,4.23
2018-09-15T23:19:38.708Z,5.57
2018-09-15T23:22:07.587Z,3.77
2018-09-15T23:24:35.842Z,8.80
2018-09-15T23:27:04.421Z,7.20
2018-09-15T23:29:33.540Z,4.63
2018-09-15T23:32:01.777Z,6.10
2018-09-15T23:34:29.886Z,7.07
2018-09-15T23:36:58.012Z,9.07
2018-09-15T23:39:26.115Z,8.87
2018-09-15T23:41:54.196Z,6.70
2018-09-15T23:44:22.329Z,4.60
2018-09-15T23:46:50.464Z,4.50
2018-09-15T23:49:18.600Z,5.00
2018-09-15T23:51:46.734Z,7.40
2018-09-15T23:54:14.821Z,5.83
2018-09-15T23:56:42.903Z,5.67
2018-09-15T23:59:10.967Z,6.47
